Time;durP1;ratioP1;P1;durP2;ratioP2;P2;SDS_P1;SDS_P2;PMS_P1;PMS_P2;Temp;Humidity;BMP_temperature;BMP_pressure;BME280_temperature;BME280_humidity;BME280_pressure;Samples;Min_cycle;Max_cycle;Signal;HPM_P1;HPM_P2
2021/07/17 00:01:29;;;;;;;31.08;9.43;;;;;;;19.73;80.53;102030.38;10110930;28;20047;-69
2021/07/17 00:06:26;;;;;;;23.95;8.63;;;;;;;19.70;80.31;102030.25;10093165;28;20047;-69
2021/07/17 00:11:22;;;;;;;27.17;8.80;;;;;;;19.67;80.47;102037.28;10108515;28;20042;-69
2021/07/17 00:16:26;;;;;;;24.92;8.02;;;;;;;19.68;80.65;102038.06;10104122;28;20428;-71
2021/07/17 00:21:23;;;;;;;35.22;9.13;;;;;;;19.63;80.96;102018.91;10115828;28;20051;-69
2021/07/17 00:26:20;;;;;;;22.90;8.82;;;;;;;19.64;80.91;102032.44;10118428;28;20050;-71
2021/07/17 00:31:16;;;;;;;22.77;8.38;;;;;;;19.57;81.02;102025.84;10116787;28;20089;-71
2021/07/17 00:36:13;;;;;;;25.80;8.63;;;;;;;19.47;82.06;102039.03;10117324;28;20105;-69
2021/07/17 00:41:09;;;;;;;30.13;8.65;;;;;;;19.49;81.84;102031.16;10121708;28;20473;-69
2021/07/17 00:46:06;;;;;;;24.33;8.85;;;;;;;19.50;81.68;102043.88;10113323;28;20074;-68
2021/07/17 00:51:02;;;;;;;23.30;7.95;;;;;;;19.54;81.47;102044.81;10115512;28;20546;-73
2021/07/17 00:56:00;;;;;;;25.70;8.88;;;;;;;19.59;81.66;102040.16;10116692;28;20457;-69
2021/07/17 01:00:57;;;;;;;28.85;9.73;;;;;;;19.53;81.85;102045.94;10115775;28;20051;-70
2021/07/17 01:05:55;;;;;;;32.08;8.43;;;;;;;19.61;81.17;102051.72;10114552;28;20130;-69
2021/07/17 01:10:52;;;;;;;27.40;8.43;;;;;;;19.51;81.90;102042.72;10107226;28;20819;-72
2021/07/17 01:15:49;;;;;;;28.33;9.88;;;;;;;19.46;82.07;102048.50;10116058;28;20047;-71
2021/07/17 01:20:48;;;;;;;23.25;9.13;;;;;;;19.40;82.43;102038.81;10106003;28;20049;-69
2021/07/17 01:25:45;;;;;;;28.52;9.23;;;;;;;19.28;82.97;102047.91;10116743;28;20496;-69
2021/07/17 01:30:41;;;;;;;25.85;8.70;;;;;;;19.27;83.46;102045.50;10114734;28;20047;-69
2021/07/17 01:35:38;;;;;;;30.15;10.07;;;;;;;19.26;83.14;102043.84;10111184;28;20043;-70
2021/07/17 01:40:34;;;;;;;25.52;7.75;;;;;;;19.28;82.83;102047.91;10115776;28;20046;-69
2021/07/17 01:45:39;;;;;;;26.42;9.57;;;;;;;19.28;83.20;102041.56;10127156;28;20445;-68
2021/07/17 01:50:37;;;;;;;26.42;8.60;;;;;;;19.26;83.15;102039.16;10103653;28;20047;-68
2021/07/17 01:55:34;;;;;;;29.52;10.00;;;;;;;19.20;83.06;102046.06;10108546;28;20043;-71
2021/07/17 02:00:30;;;;;;;26.73;9.35;;;;;;;19.19;83.17;102040.84;10109056;28;20102;-69
2021/07/17 02:05:27;;;;;;;26.05;9.23;;;;;;;19.21;83.04;102033.00;10114143;28;20524;-71
2021/07/17 02:10:26;;;;;;;27.27;9.05;;;;;;;19.23;82.89;102039.81;10110363;28;20047;-69
2021/07/17 02:15:23;;;;;;;22.63;9.68;;;;;;;19.23;83.54;102039.81;10109654;28;20110;-70
2021/07/17 02:20:20;;;;;;;22.95;8.48;;;;;;;19.16;83.63;102038.78;10107237;28;20051;-70
2021/07/17 02:25:18;;;;;;;17.50;8.10;;;;;;;19.10;83.84;102032.66;10109766;28;20082;-70
2021/07/17 02:30:15;;;;;;;25.17;8.50;;;;;;;19.08;83.79;102034.97;10106534;28;20069;-69
2021/07/17 02:35:12;;;;;;;23.45;9.75;;;;;;;19.09;83.78;102023.50;10113400;28;20469;-70
2021/07/17 02:40:09;;;;;;;23.35;9.23;;;;;;;19.12;83.50;102027.56;10105667;28;20113;-70
2021/07/17 02:45:07;;;;;;;29.10;10.05;;;;;;;19.12;83.39;102038.63;10105345;28;20114;-70
2021/07/17 02:50:06;;;;;;;20.33;8.35;;;;;;;19.15;83.27;102035.19;10092771;28;20070;-69
2021/07/17 02:55:05;;;;;;;18.38;7.95;;;;;;;19.16;82.96;102038.78;10102773;28;20057;-69
2021/07/17 03:00:05;;;;;;;24.88;8.82;;;;;;;19.14;82.80;102037.13;10107990;28;20493;-71
2021/07/17 03:05:03;;;;;;;21.58;9.50;;;;;;;19.12;82.96;102036.69;10105961;28;20480;-70
2021/07/17 03:09:59;;;;;;;22.35;8.60;;;;;;;19.13;83.00;102041.06;10094394;28;20038;-70
2021/07/17 03:14:56;;;;;;;18.83;8.07;;;;;;;19.14;83.11;102051.00;10104902;28;20113;-69
2021/07/17 03:19:52;;;;;;;29.25;10.15;;;;;;;19.09;83.32;102048.47;10099808;28;20050;-71
2021/07/17 03:24:49;;;;;;;22.08;8.80;;;;;;;19.03;83.80;102052.63;10114703;28;20133;-69
2021/07/17 03:29:48;;;;;;;20.92;8.93;;;;;;;19.05;83.43;102052.25;10090144;28;20043;-70
2021/07/17 03:34:49;;;;;;;17.65;9.23;;;;;;;19.06;83.39;102063.00;10084692;28;20141;-71
2021/07/17 03:39:47;;;;;;;16.58;8.55;;;;;;;19.06;83.27;102057.47;10087424;28;20529;-71
2021/07/17 03:44:45;;;;;;;19.15;9.05;;;;;;;19.04;83.03;102054.22;10102206;28;20049;-70
2021/07/17 03:49:42;;;;;;;16.27;9.13;;;;;;;19.01;83.40;102063.25;10092237;28;20178;-70
2021/07/17 03:54:39;;;;;;;22.77;9.57;;;;;;;18.93;83.56;102058.59;10112179;28;20661;-70
2021/07/17 03:59:37;;;;;;;16.58;8.38;;;;;;;18.91;83.54;102060.88;10108589;28;20563;-72
2021/07/17 04:04:39;;;;;;;15.02;8.63;;;;;;;18.89;83.21;102074.28;10095655;28;20069;-68
2021/07/17 04:09:36;;;;;;;15.30;8.00;;;;;;;18.78;83.12;102068.38;10110817;28;20098;-72
2021/07/17 04:14:32;;;;;;;13.07;7.45;;;;;;;18.75;82.75;102068.19;10106203;28;20582;-69
2021/07/17 04:19:29;;;;;;;12.93;6.88;;;;;;;18.70;82.46;102070.03;10107085;28;20106;-71
2021/07/17 04:24:25;;;;;;;16.52;7.93;;;;;;;18.69;82.22;102076.72;10112870;28;20090;-71
2021/07/17 04:29:22;;;;;;;14.73;6.40;;;;;;;18.67;80.84;102073.47;10113425;28;20085;-70
2021/07/17 04:34:19;;;;;;;11.07;5.53;;;;;;;18.65;80.48;102075.78;10094749;28;20054;-69
2021/07/17 04:39:16;;;;;;;15.52;5.88;;;;;;;18.65;79.15;102075.78;10112631;28;20488;-71
2021/07/17 04:44:13;;;;;;;11.73;5.00;;;;;;;18.72;78.72;102086.31;10112128;28;20081;-70
2021/07/17 04:49:19;;;;;;;7.18;4.20;;;;;;;18.67;77.14;102079.03;10085029;28;20073;-71
2021/07/17 04:54:22;;;;;;;9.70;4.55;;;;;;;18.68;77.01;102080.66;10100831;28;20055;-72
2021/07/17 04:59:20;;;;;;;10.80;5.32;;;;;;;18.66;76.25;102084.91;10103657;28;20078;-68
2021/07/17 05:04:17;;;;;;;8.25;3.63;;;;;;;18.64;73.83;102085.25;10108104;28;20050;-69
2021/07/17 05:09:13;;;;;;;9.15;3.30;;;;;;;18.67;73.22;102090.09;10110866;28;20070;-71
2021/07/17 05:14:10;;;;;;;11.23;3.20;;;;;;;18.62;71.41;102084.78;10112364;28;20051;-69
2021/07/17 05:19:06;;;;;;;8.32;3.30;;;;;;;18.68;71.99;102085.38;10110324;28;20042;-69
2021/07/17 05:24:04;;;;;;;13.00;3.28;;;;;;;18.71;72.03;102091.03;10095063;28;20134;-71
2021/07/17 05:29:01;;;;;;;6.30;2.70;;;;;;;18.61;71.68;102102.56;10113201;28;20074;-70
2021/07/17 05:33:57;;;;;;;5.68;2.55;;;;;;;18.62;71.37;102103.34;10115686;28;20094;-71
2021/07/17 05:38:54;;;;;;;5.95;2.65;;;;;;;18.58;69.77;102103.22;10107387;28;20047;-73
2021/07/17 05:43:50;;;;;;;10.88;3.65;;;;;;;18.51;68.75;102122.34;10119456;28;20046;-71
2021/07/17 05:48:46;;;;;;;6.30;2.10;;;;;;;18.41;67.82;102125.53;10105212;28;20042;-75
2021/07/17 05:53:43;;;;;;;9.60;2.45;;;;;;;18.29;68.29;102126.25;10111212;28;20070;-72
2021/07/17 05:58:39;;;;;;;6.38;2.47;;;;;;;18.30;68.46;102131.44;10113427;28;20073;-72
2021/07/17 06:03:36;;;;;;;7.93;2.20;;;;;;;18.36;68.56;102139.56;10112048;28;20538;-72
2021/07/17 06:08:33;;;;;;;12.25;2.80;;;;;;;18.47;68.52;102140.78;10105300;28;20073;-71
2021/07/17 06:13:30;;;;;;;7.63;2.15;;;;;;;18.44;67.72;102147.00;10090791;28;20394;-70
2021/07/17 06:18:29;;;;;;;10.02;2.72;;;;;;;18.54;68.27;102156.84;10107341;28;20047;-71
2021/07/17 06:23:26;;;;;;;9.93;2.28;;;;;;;18.64;68.28;102148.16;10093316;28;20079;-70
2021/07/17 06:28:22;;;;;;;9.77;2.55;;;;;;;18.58;68.13;102153.06;10096900;28;20101;-72
2021/07/17 06:33:19;;;;;;;7.78;2.35;;;;;;;18.63;67.98;102150.09;10088020;28;20063;-69
2021/07/17 06:38:18;;;;;;;9.77;2.53;;;;;;;18.70;68.04;102161.47;10094026;28;20106;-73
2021/07/17 06:43:15;;;;;;;9.65;1.88;;;;;;;18.72;68.08;102156.38;10099568;28;20049;-71
2021/07/17 06:48:12;;;;;;;7.88;2.67;;;;;;;18.78;68.49;102153.47;10106359;28;20065;-71
2021/07/17 06:53:08;;;;;;;13.88;3.60;;;;;;;18.86;68.00;102147.81;10088276;28;20501;-73
2021/07/17 06:58:05;;;;;;;10.45;2.22;;;;;;;18.98;67.75;102151.78;10088412;28;20143;-71
2021/07/17 07:03:03;;;;;;;11.52;2.25;;;;;;;19.09;67.70;102155.75;10091716;28;20070;-70
2021/07/17 07:08:00;;;;;;;8.55;2.90;;;;;;;19.07;67.25;102153.31;10100864;28;20074;-69
2021/07/17 07:12:57;;;;;;;5.57;1.98;;;;;;;19.17;67.36;102146.56;10103611;28;20043;-70
2021/07/17 07:17:53;;;;;;;8.45;2.92;;;;;;;19.34;67.08;102151.09;10111968;28;20066;-73
2021/07/17 07:22:50;;;;;;;7.13;2.45;;;;;;;19.30;66.94;102158.47;10097949;28;20050;-70
2021/07/17 07:27:47;;;;;;;11.65;3.03;;;;;;;19.43;66.85;102154.59;10113643;28;20105;-70
2021/07/17 07:32:44;;;;;;;13.75;2.65;;;;;;;19.61;66.94;102159.91;10093989;28;20070;-69
2021/07/17 07:37:41;;;;;;;9.95;2.08;;;;;;;19.59;66.95;102156.69;10090469;28;20106;-69
2021/07/17 07:42:37;;;;;;;10.25;2.85;;;;;;;19.62;66.02;102161.56;10103466;28;20142;-72
2021/07/17 07:47:34;;;;;;;9.30;2.45;;;;;;;19.76;66.41;102162.88;10091064;28;20097;-70
2021/07/17 07:52:31;;;;;;;8.52;2.25;;;;;;;19.92;66.11;102151.88;10100477;28;20054;-68
2021/07/17 07:57:28;;;;;;;9.27;2.90;;;;;;;20.05;66.12;102158.25;10096763;28;20081;-68
2021/07/17 08:02:26;;;;;;;14.52;2.90;;;;;;;20.22;65.44;102159.19;10100121;28;20126;-67
2021/07/17 08:07:25;;;;;;;10.30;2.63;;;;;;;20.14;64.05;102163.66;10096313;28;20069;-68
2021/07/17 08:12:21;;;;;;;9.20;2.83;;;;;;;20.22;64.44;102170.28;10098891;28;20138;-68
2021/07/17 08:17:18;;;;;;;10.57;3.28;;;;;;;20.36;64.04;102163.19;10097138;28;20090;-70
2021/07/17 08:22:14;;;;;;;8.23;2.40;;;;;;;20.42;64.10;102154.59;10091126;28;20428;-68
2021/07/17 08:27:11;;;;;;;8.43;2.15;;;;;;;20.56;63.58;102160.63;10114437;28;20043;-69
2021/07/17 08:32:10;;;;;;;7.68;2.33;;;;;;;20.70;62.60;102155.50;10085584;28;20059;-69
2021/07/17 08:37:07;;;;;;;6.93;2.28;;;;;;;20.80;62.03;102165.31;10089818;28;20149;-68
2021/07/17 08:42:04;;;;;;;7.18;2.10;;;;;;;20.88;62.16;102155.19;10095513;28;20121;-69
2021/07/17 08:47:01;;;;;;;10.27;2.30;;;;;;;21.06;62.10;102152.94;10096184;28;20144;-70
2021/07/17 08:52:00;;;;;;;12.75;2.50;;;;;;;21.13;62.35;102162.25;10090114;28;20047;-69
2021/07/17 08:56:58;;;;;;;9.00;2.72;;;;;;;21.30;62.29;102155.56;10091451;28;20043;-69
2021/07/17 09:01:54;;;;;;;9.45;3.40;;;;;;;21.28;60.81;102157.91;10100495;28;20066;-68
2021/07/17 09:06:52;;;;;;;10.07;3.60;;;;;;;21.50;61.25;102162.09;10112602;28;20289;-68
2021/07/17 09:11:49;;;;;;;6.30;1.80;;;;;;;21.57;60.75;102162.28;10095593;28;20050;-69
2021/07/17 09:17:01;;;;;;;8.18;2.15;;;;;;;21.73;59.69;102155.91;10108274;28;20106;-67
2021/07/17 09:21:57;;;;;;;9.77;2.13;;;;;;;21.80;58.38;102161.66;10094538;28;20043;-69
2021/07/17 09:27:02;;;;;;;5.32;1.63;;;;;;;21.99;59.35;102153.34;10090459;28;20717;-69
2021/07/17 09:31:58;;;;;;;8.52;1.80;;;;;;;22.21;58.03;102148.31;10101012;28;20163;-69
2021/07/17 09:37:17;;;;;;;6.70;2.03;;;;;;;22.38;58.29;102147.91;10083779;28;20078;-71
2021/07/17 09:42:16;;;;;;;7.80;1.80;;;;;;;22.61;58.03;102144.41;10097043;28;20474;-68
2021/07/17 09:47:21;;;;;;;8.25;1.90;;;;;;;22.77;56.52;102142.38;10094355;28;20047;-67
2021/07/17 09:52:23;;;;;;;7.90;2.00;;;;;;;22.97;54.75;102156.28;10102373;28;20082;-68
2021/07/17 09:57:28;;;;;;;7.47;1.90;;;;;;;23.04;54.69;102146.09;10090384;28;20134;-68
2021/07/17 10:02:29;;;;;;;5.70;1.33;;;;;;;23.18;53.46;102139.97;10090141;28;20051;-67
2021/07/17 10:07:26;;;;;;;7.65;1.65;;;;;;;23.47;53.04;102134.94;10093436;28;20130;-70
2021/07/17 10:12:37;;;;;;;6.65;1.75;;;;;;;23.83;50.05;102129.94;10096874;28;20106;-70
2021/07/17 10:17:42;;;;;;;4.85;1.48;;;;;;;24.20;49.76;102137.69;10103347;28;20465;-67
2021/07/17 10:22:39;;;;;;;4.95;1.35;;;;;;;25.46;48.61;102135.22;10089767;28;20066;-69
2021/07/17 10:27:36;;;;;;;5.57;1.33;;;;;;;26.22;44.47;102143.00;10085876;28;20873;-69
2021/07/17 10:32:33;;;;;;;5.75;1.50;;;;;;;26.95;42.97;102139.31;10082729;28;20130;-68
2021/07/17 10:37:33;;;;;;;7.68;1.60;;;;;;;27.77;42.96;102127.38;10086886;28;20484;-68
2021/07/17 10:42:31;;;;;;;6.38;1.75;;;;;;;28.69;41.77;102136.81;10084733;28;20138;-69
2021/07/17 10:47:39;;;;;;;7.07;1.55;;;;;;;29.43;38.41;102133.13;10084958;28;20085;-68
2021/07/17 10:52:41;;;;;;;6.35;1.30;;;;;;;29.20;39.24;102125.28;10087988;28;20070;-69
2021/07/17 10:57:37;;;;;;;4.80;1.30;;;;;;;29.21;39.32;102129.69;10078594;28;20047;-69
2021/07/17 11:02:34;;;;;;;6.85;1.33;;;;;;;29.01;38.63;102124.56;10084519;28;20067;-69
2021/07/17 11:07:33;;;;;;;5.10;1.38;;;;;;;29.78;36.80;102109.50;10089514;28;20050;-71
2021/07/17 11:12:34;;;;;;;7.05;1.60;;;;;;;29.84;38.49;102107.81;10078296;28;20077;-68
2021/07/17 11:17:41;;;;;;;5.82;1.25;;;;;;;29.68;36.97;102110.41;10083481;28;20131;-68
2021/07/17 11:22:37;;;;;;;7.68;1.52;;;;;;;30.13;36.82;102105.50;10087989;28;20110;-70
2021/07/17 11:27:40;;;;;;;4.80;1.85;;;;;;;30.68;35.78;102111.28;10105726;28;20142;-68
2021/07/17 11:32:36;;;;;;;7.28;1.10;;;;;;;30.79;35.07;102109.91;10100977;28;20082;-68
2021/07/17 11:37:33;;;;;;;10.07;1.50;;;;;;;30.52;33.78;102111.91;10108535;28;20039;-74
2021/07/17 11:42:36;;;;;;;5.50;1.58;;;;;;;30.51;33.50;102110.31;10095434;28;20059;-67
2021/07/17 11:47:32;;;;;;;5.63;1.63;;;;;;;30.50;35.13;102097.44;10093280;28;20039;-68
2021/07/17 11:52:32;;;;;;;8.98;1.63;;;;;;;30.30;34.10;102100.09;10098527;28;20058;-69
2021/07/17 11:57:33;;;;;;;5.90;1.35;;;;;;;29.09;36.34;102100.00;10098744;28;20058;-70
2021/07/17 12:02:31;;;;;;;6.68;1.40;;;;;;;28.81;38.87;102086.88;10093098;28;20054;-72
2021/07/17 12:07:31;;;;;;;7.80;1.38;;;;;;;28.22;39.22;102090.34;10102744;28;20654;-70
2021/07/17 12:12:30;;;;;;;6.53;1.23;;;;;;;28.08;40.57;102091.19;10103263;28;20067;-67
2021/07/17 12:17:27;;;;;;;7.57;1.70;;;;;;;28.07;40.65;102089.59;10116154;28;20649;-67
2021/07/17 12:22:24;;;;;;;5.88;1.60;;;;;;;28.16;40.53;102087.16;10113681;28;20057;-68
2021/07/17 12:27:20;;;;;;;5.13;1.30;;;;;;;27.84;39.97;102093.66;10108408;28;20079;-69
2021/07/17 12:32:19;;;;;;;5.25;1.42;;;;;;;27.59;41.23;102064.78;10112639;28;20050;-71
2021/07/17 12:37:28;;;;;;;7.43;1.23;;;;;;;27.23;41.02;102087.25;10109959;28;20126;-68
2021/07/17 12:42:24;;;;;;;4.82;1.25;;;;;;;27.15;43.00;102066.75;10117339;28;20051;-68
2021/07/17 12:47:21;;;;;;;4.43;1.33;;;;;;;27.14;43.20;102062.34;10109492;28;20093;-69
2021/07/17 12:52:17;;;;;;;10.02;2.05;;;;;;;26.73;43.84;102065.50;10121039;28;20420;-68
2021/07/17 12:57:14;;;;;;;6.70;1.48;;;;;;;26.89;44.71;102061.53;10113303;28;20081;-68
2021/07/17 13:02:15;;;;;;;5.97;1.58;;;;;;;26.82;44.04;102062.31;10112670;28;20141;-67
2021/07/17 13:07:26;;;;;;;4.75;1.40;;;;;;;26.79;44.77;102052.69;10112398;28;20051;-68
2021/07/17 13:12:28;;;;;;;7.57;1.42;;;;;;;26.80;43.70;102054.28;10111500;28;20051;-69
2021/07/17 13:17:30;;;;;;;6.75;1.40;;;;;;;26.72;43.54;102063.09;10109633;28;20509;-68
2021/07/17 13:22:46;;;;;;;5.28;1.98;;;;;;;26.57;43.24;102065.06;10109604;28;20109;-72
2021/07/17 13:27:42;;;;;;;8.63;1.75;;;;;;;26.46;42.70;102067.81;10101435;28;20077;-69
2021/07/17 13:32:43;;;;;;;9.45;1.48;;;;;;;26.33;43.11;102052.53;10109385;28;20500;-70
2021/07/17 13:37:39;;;;;;;8.90;1.40;;;;;;;26.31;44.31;102043.72;10110982;28;20505;-69
2021/07/17 13:42:36;;;;;;;10.32;2.20;;;;;;;26.48;44.66;102054.19;10116077;28;20098;-71
2021/07/17 13:47:47;;;;;;;6.07;1.27;;;;;;;26.42;45.13;102039.75;10110802;28;20073;-68
2021/07/17 13:52:44;;;;;;;5.35;1.50;;;;;;;26.60;44.51;102042.63;10095254;28;20042;-67
2021/07/17 13:57:44;;;;;;;6.68;1.17;;;;;;;26.94;45.02;102042.28;10088349;28;20067;-72
2021/07/17 14:02:41;;;;;;;9.45;1.48;;;;;;;26.83;44.65;102047.09;10089102;28;20081;-70
2021/07/17 14:07:39;;;;;;;6.30;1.30;;;;;;;26.73;45.87;102042.25;10085758;28;20051;-70
2021/07/17 14:12:37;;;;;;;7.38;1.95;;;;;;;26.42;44.62;102064.19;10096700;28;20077;-69
2021/07/17 14:17:33;;;;;;;5.80;1.42;;;;;;;26.44;44.75;102036.56;10087664;28;20078;-68
2021/07/17 14:22:30;;;;;;;5.22;1.60;;;;;;;26.40;45.48;102038.53;10107379;28;20096;-68
2021/07/17 14:27:26;;;;;;;5.47;1.55;;;;;;;27.01;44.88;102045.09;10097823;28;20070;-69
2021/07/17 14:32:23;;;;;;;7.55;1.63;;;;;;;27.68;43.49;102037.84;10091105;28;20050;-67
2021/07/17 14:37:20;;;;;;;6.38;1.48;;;;;;;27.46;43.26;102037.09;10095188;28;20055;-68
2021/07/17 14:42:16;;;;;;;6.85;1.95;;;;;;;27.38;43.68;102027.06;10096419;28;20066;-68
2021/07/17 14:47:14;;;;;;;4.80;1.60;;;;;;;27.30;44.65;102019.09;10093210;28;20042;-69
2021/07/17 14:52:11;;;;;;;7.13;1.90;;;;;;;27.39;44.16;102022.28;10092901;28;20406;-68
2021/07/17 14:57:07;;;;;;;9.40;1.60;;;;;;;27.28;44.12;102014.66;10109304;28;20501;-70
2021/07/17 15:02:04;;;;;;;5.82;1.73;;;;;;;27.03;45.55;102033.47;10107541;28;20050;-69
2021/07/17 15:07:01;;;;;;;7.18;1.65;;;;;;;26.98;45.35;102026.25;10100123;28;20074;-67
2021/07/17 15:11:57;;;;;;;6.35;1.75;;;;;;;26.80;46.70;102029.03;10098720;28;20074;-71
2021/07/17 15:16:54;;;;;;;6.53;1.40;;;;;;;26.87;45.90;102025.44;10092171;28;20132;-67
2021/07/17 15:21:51;;;;;;;9.88;1.70;;;;;;;26.72;46.11;102026.63;10092603;28;20058;-68
2021/07/17 15:26:48;;;;;;;7.32;1.17;;;;;;;27.01;46.71;102019.84;10087845;28;20093;-69
2021/07/17 15:31:46;;;;;;;4.95;1.50;;;;;;;26.90;45.49;102033.06;10096523;28;20088;-72
2021/07/17 15:36:46;;;;;;;7.18;2.50;;;;;;;26.89;45.30;102022.25;10092632;28;20039;-69
2021/07/17 15:41:43;;;;;;;9.20;1.77;;;;;;;26.78;45.83;102028.66;10104137;28;20051;-68
2021/07/17 15:46:40;;;;;;;10.13;2.50;;;;;;;26.79;45.88;102021.03;10110544;28;20078;-70
2021/07/17 15:51:37;;;;;;;6.28;1.33;;;;;;;26.91;45.74;102014.22;10113118;28;20043;-69
2021/07/17 15:56:34;;;;;;;4.68;1.08;;;;;;;27.04;45.05;102019.06;10112429;28;20545;-68
2021/07/17 16:01:31;;;;;;;8.10;2.03;;;;;;;27.03;44.97;102028.66;10110136;28;20183;-68
2021/07/17 16:06:28;;;;;;;7.95;1.92;;;;;;;27.35;44.09;102022.28;10106670;28;20520;-69
2021/07/17 16:11:24;;;;;;;7.47;1.58;;;;;;;27.96;42.96;102021.38;10108004;28;20125;-68
2021/07/17 16:16:22;;;;;;;16.80;1.95;;;;;;;28.04;42.63;102022.97;10117847;28;20074;-70
2021/07/17 16:21:22;;;;;;;4.60;1.20;;;;;;;28.27;41.04;102026.06;10108229;28;20508;-70
2021/07/17 16:26:18;;;;;;;4.32;1.00;;;;;;;28.25;41.66;102022.84;10108684;28;20489;-69
2021/07/17 16:31:15;;;;;;;5.07;1.10;;;;;;;28.70;40.31;102008.16;10104664;28;20054;-70
2021/07/17 16:36:14;;;;;;;4.65;1.05;;;;;;;28.18;40.28;102025.69;10108441;28;20089;-69
2021/07/17 16:41:10;;;;;;;6.60;1.65;;;;;;;28.16;39.75;102018.88;10118461;28;20045;-68
2021/07/17 16:46:08;;;;;;;7.63;1.95;;;;;;;27.94;39.79;102018.16;10110278;28;20077;-67
2021/07/17 16:51:04;;;;;;;4.03;1.20;;;;;;;27.53;41.00;102013.03;10109909;28;20053;-68
2021/07/17 16:56:02;;;;;;;5.05;1.40;;;;;;;27.97;39.83;102022.97;10110954;28;20047;-70
2021/07/17 17:00:59;;;;;;;4.97;1.40;;;;;;;28.14;39.42;102016.47;10110796;28;20043;-67
2021/07/17 17:05:55;;;;;;;4.93;1.60;;;;;;;27.81;39.92;102004.53;10107436;28;20043;-68
2021/07/17 17:10:52;;;;;;;6.22;1.42;;;;;;;27.02;41.37;102024.25;10107306;28;20142;-68
2021/07/17 17:15:50;;;;;;;4.90;1.00;;;;;;;26.13;42.90;102010.00;10109766;28;20059;-68
2021/07/17 17:20:47;;;;;;;6.28;1.42;;;;;;;25.37;43.65;102023.56;10109737;28;20043;-68
2021/07/17 17:25:45;;;;;;;4.88;2.13;;;;;;;25.37;43.89;102031.94;10101762;28;20106;-67
2021/07/17 17:30:41;;;;;;;7.85;1.85;;;;;;;25.37;43.98;102026.34;10107939;28;20550;-70
2021/07/17 17:35:38;;;;;;;4.70;1.05;;;;;;;25.17;43.94;102022.16;10111578;28;20049;-69
2021/07/17 17:40:38;;;;;;;5.03;1.75;;;;;;;25.34;44.12;102013.13;10108373;28;20551;-67
2021/07/17 17:45:35;;;;;;;5.82;1.60;;;;;;;26.44;42.67;102019.72;10107227;28;20062;-68
2021/07/17 17:50:31;;;;;;;6.50;1.33;;;;;;;27.21;41.88;102025.88;10108419;28;20081;-70
2021/07/17 17:55:28;;;;;;;6.53;1.42;;;;;;;25.65;45.74;102024.94;10106521;28;20508;-69
2021/07/17 18:00:25;;;;;;;10.40;1.73;;;;;;;25.63;45.82;102041.34;10108520;28;20050;-68
2021/07/17 18:05:22;;;;;;;6.93;1.27;;;;;;;25.86;45.15;102046.69;10108980;28;20054;-68
2021/07/17 18:10:19;;;;;;;5.22;1.90;;;;;;;25.37;45.94;102040.34;10107180;28;20066;-71
2021/07/17 18:15:16;;;;;;;7.82;2.67;;;;;;;24.45;47.78;102040.19;10108372;28;20054;-67
2021/07/17 18:20:20;;;;;;;5.30;2.80;;;;;;;24.40;48.01;102038.53;10102810;28;20477;-67
2021/07/17 18:25:17;;;;;;;8.98;3.55;;;;;;;24.41;48.85;102042.94;10105879;28;20093;-70
2021/07/17 18:30:15;;;;;;;5.70;2.08;;;;;;;24.07;49.32;102051.31;10106481;28;20078;-67
2021/07/17 18:35:13;;;;;;;7.53;1.38;;;;;;;23.56;50.63;102048.94;10092089;28;20078;-69
2021/07/17 18:40:13;;;;;;;4.32;1.67;;;;;;;23.37;50.92;102051.81;10106953;28;20050;-68
2021/07/17 18:45:11;;;;;;;4.03;1.17;;;;;;;23.13;51.17;102062.19;10111616;28;20047;-68
2021/07/17 18:50:10;;;;;;;5.00;1.30;;;;;;;23.21;50.81;102074.28;10100986;28;20059;-68
2021/07/17 18:55:10;;;;;;;6.85;1.10;;;;;;;23.06;51.04;102064.84;10103222;28;20405;-68
2021/07/17 19:00:10;;;;;;;7.63;1.98;;;;;;;22.79;50.95;102073.09;10098285;28;20042;-67
2021/07/17 19:05:07;;;;;;;7.28;1.73;;;;;;;22.76;51.30;102076.59;10107151;28;20114;-68
2021/07/17 19:10:05;;;;;;;6.03;1.67;;;;;;;22.68;51.48;102077.66;10101164;28;20046;-68
2021/07/17 19:15:02;;;;;;;4.57;1.60;;;;;;;22.52;52.30;102076.94;10108651;28;20047;-67
2021/07/17 19:19:58;;;;;;;6.57;1.48;;;;;;;22.38;52.19;102078.25;10111305;28;20082;-71
2021/07/17 19:24:55;;;;;;;4.57;1.67;;;;;;;22.25;51.98;102087.91;10100169;28;20551;-67
2021/07/17 19:29:51;;;;;;;7.88;2.20;;;;;;;22.42;51.95;102086.69;10101524;28;20130;-68
2021/07/17 19:34:49;;;;;;;6.82;2.15;;;;;;;22.26;51.86;102089.53;10104044;28;20043;-67
2021/07/17 19:39:45;;;;;;;5.68;1.65;;;;;;;22.19;52.94;102094.94;10105533;28;20101;-68
2021/07/17 19:44:41;;;;;;;4.82;1.73;;;;;;;21.93;55.05;102090.78;10100272;28;20551;-70
2021/07/17 19:49:38;;;;;;;6.18;1.60;;;;;;;21.76;58.73;102099.50;10110594;28;20073;-69
2021/07/17 19:54:37;;;;;;;9.43;1.95;;;;;;;21.57;60.49;102098.25;10102877;28;20109;-67
2021/07/17 19:59:33;;;;;;;5.47;1.88;;;;;;;21.54;60.72;102093.44;10105833;28;20134;-68
2021/07/17 20:04:30;;;;;;;10.95;1.90;;;;;;;21.40;61.59;102105.00;10101191;28;20055;-69
2021/07/17 20:09:26;;;;;;;8.02;2.00;;;;;;;21.33;62.12;102098.44;10105074;28;20090;-68
2021/07/17 20:14:23;;;;;;;7.35;2.28;;;;;;;21.09;63.63;102102.94;10098544;28;20102;-69
2021/07/17 20:19:19;;;;;;;11.07;2.00;;;;;;;21.02;63.91;102095.22;10096128;28;20101;-68
2021/07/17 20:24:16;;;;;;;8.45;2.05;;;;;;;21.06;63.82;102095.34;10102791;28;20093;-67
2021/07/17 20:29:13;;;;;;;8.15;2.05;;;;;;;20.78;65.88;102090.63;10106285;28;20137;-69
2021/07/17 20:34:09;;;;;;;8.57;3.20;;;;;;;20.77;66.20;102094.56;10098364;28;20147;-66
2021/07/17 20:39:07;;;;;;;9.52;2.83;;;;;;;20.69;66.82;102103.06;10110062;28;20078;-67
2021/07/17 20:44:03;;;;;;;9.25;3.17;;;;;;;20.63;67.80;102104.44;10118976;28;20094;-69
2021/07/17 20:49:00;;;;;;;14.27;4.57;;;;;;;20.48;68.76;102101.22;10111647;28;20392;-70
2021/07/17 20:53:56;;;;;;;8.18;3.50;;;;;;;20.47;69.17;102101.56;10118695;28;20460;-67
2021/07/17 20:58:53;;;;;;;8.88;3.45;;;;;;;20.32;70.10;102106.72;10113407;28;20077;-66
2021/07/17 21:03:49;;;;;;;10.23;2.97;;;;;;;20.28;70.21;102097.47;10112575;28;20038;-67
2021/07/17 21:08:45;;;;;;;11.07;3.00;;;;;;;20.20;70.86;102098.41;10109160;28;20043;-68
2021/07/17 21:13:42;;;;;;;11.73;3.28;;;;;;;20.28;70.53;102105.78;10106650;28;20043;-70
2021/07/17 21:18:38;;;;;;;9.35;2.40;;;;;;;20.22;70.65;102095.31;10105900;28;20054;-70
2021/07/17 21:23:35;;;;;;;11.23;2.90;;;;;;;20.04;71.42;102100.31;10108280;28;20077;-67
2021/07/17 21:28:31;;;;;;;13.02;3.05;;;;;;;20.08;71.81;102101.22;10109764;28;20082;-67
2021/07/17 21:33:28;;;;;;;12.50;3.78;;;;;;;19.83;72.16;102100.44;10105791;28;20189;-67
2021/07/17 21:38:25;;;;;;;12.80;3.83;;;;;;;19.93;72.13;102105.50;10105719;28;20517;-67
2021/07/17 21:43:21;;;;;;;8.85;4.18;;;;;;;19.91;71.89;102097.53;10113361;28;20393;-70
2021/07/17 21:48:19;;;;;;;7.90;3.88;;;;;;;19.86;71.88;102097.75;10106880;28;20457;-67
2021/07/17 21:53:15;;;;;;;8.65;3.17;;;;;;;19.82;71.83;102107.97;10104526;28;20067;-68
2021/07/17 21:58:12;;;;;;;9.20;3.47;;;;;;;19.74;72.30;102097.78;10100753;28;20039;-69
2021/07/17 22:03:09;;;;;;;7.72;3.42;;;;;;;19.73;71.94;102107.25;10109816;28;20134;-67
2021/07/17 22:08:06;;;;;;;11.57;3.17;;;;;;;19.63;72.07;102102.94;10107780;28;20110;-67
2021/07/17 22:13:03;;;;;;;10.25;3.30;;;;;;;19.54;72.12;102105.84;10108764;28;20125;-70
2021/07/17 22:17:59;;;;;;;10.27;2.75;;;;;;;19.64;71.62;102110.13;10113905;28;20074;-68
2021/07/17 22:22:56;;;;;;;12.00;3.97;;;;;;;19.65;71.34;102099.81;10104471;28;20130;-67
2021/07/17 22:27:57;;;;;;;9.85;3.38;;;;;;;19.61;71.62;102104.44;10106496;28;20051;-67
2021/07/17 22:32:55;;;;;;;8.27;2.97;;;;;;;19.51;71.43;102106.50;10108381;28;20082;-67
2021/07/17 22:37:51;;;;;;;6.40;2.42;;;;;;;19.34;72.34;102101.19;10105525;28;20078;-68
2021/07/17 22:42:48;;;;;;;6.95;2.83;;;;;;;19.35;72.04;102091.69;10102035;28;20090;-66